Time,TemperatureF,DewpointF,PressureIn,WindDirection,WindDirectionDegrees,WindSpeedMPH,WindSpeedGustMPH,Humidity,HourlyPrecipIn,Conditions,Clouds,dailyrainin,SoftwareType,DateUTC
2013-05-07 00:03:00,48.0,48.0,-100.00,North,5,0.0,0.0,100,-99.99,,,-99.99,,2013-05-07 04:03:00,
2013-05-07 00:12:00,47.0,47.0,-100.00,North,5,0.0,1.0,100,-99.99,,,-99.99,,2013-05-07 04:12:00,
2013-05-07 00:23:00,47.0,47.0,-100.00,North,5,1.0,1.0,100,-99.99,,,-99.99,,2013-05-07 04:23:00,
2013-05-07 00:33:00,47.0,47.0,-100.00,North,5,0.0,1.0,99,-99.99,,,-99.99,,2013-05-07 04:33:00,
2013-05-07 00:42:00,47.0,47.0,-100.00,North,5,0.0,0.0,99,-99.99,,,-99.99,,2013-05-07 04:42:00,
2013-05-07 00:53:00,47.0,47.0,-100.00,North,5,0.0,0.0,99,-99.99,,,-99.99,,2013-05-07 04:53:00,
2013-05-07 01:02:00,47.0,47.0,-100.00,North,5,0.0,1.0,99,-99.99,,,-99.99,,2013-05-07 05:02:00,
2013-05-07 01:12:00,47.0,47.0,-100.00,North,5,0.0,0.0,100,-99.99,,,-99.99,,2013-05-07 05:12:00,
2013-05-07 01:22:00,47.0,47.0,-100.00,North,5,0.0,0.0,100,-99.99,,,-99.99,,2013-05-07 05:22:00,
2013-05-07 01:32:00,46.0,46.0,-100.00,North,5,0.0,0.0,100,-99.99,,,-99.99,,2013-05-07 05:32:00,
2013-05-07 01:42:00,46.0,46.0,-100.00,North,5,0.0,0.0,100,-99.99,,,-99.99,,2013-05-07 05:42:00,
2013-05-07 01:52:00,46.0,46.0,-100.00,North,5,0.0,1.0,100,-99.99,,,-99.99,,2013-05-07 05:52:00,
2013-05-07 02:02:00,47.0,47.0,-100.00,North,5,1.0,2.0,100,-99.99,,,-99.99,,2013-05-07 06:02:00,
2013-05-07 02:12:00,47.0,47.0,-100.00,North,5,0.0,2.0,99,-99.99,,,-99.99,,2013-05-07 06:12:00,
2013-05-07 02:22:00,47.0,47.0,-100.00,North,5,2.0,4.0,100,-99.99,,,-99.99,,2013-05-07 06:22:00,
2013-05-07 02:32:00,47.0,47.0,-100.00,North,5,3.0,6.0,100,-99.99,,,-99.99,,2013-05-07 06:32:00,
2013-05-07 02:42:00,46.0,46.0,-100.00,North,5,0.0,4.0,100,-99.99,,,-99.99,,2013-05-07 06:42:00,
2013-05-07 02:52:00,46.0,46.0,-100.00,North,5,0.0,1.0,99,-99.99,,,-99.99,,2013-05-07 06:52:00,
2013-05-07 03:02:00,46.0,45.0,-100.00,North,5,0.0,0.0,99,-99.99,,,-99.99,,2013-05-07 07:02:00,
2013-05-07 03:11:00,45.0,45.0,-100.00,North,5,0.0,0.0,99,-99.99,,,-99.99,,2013-05-07 07:11:00,
2013-05-07 03:22:00,45.0,45.0,-100.00,North,5,0.0,1.0,99,-99.99,,,-99.99,,2013-05-07 07:22:00,
2013-05-07 03:32:00,45.0,45.0,-100.00,North,5,0.0,0.0,99,-99.99,,,-99.99,,2013-05-07 07:32:00,
2013-05-07 03:42:00,45.0,45.0,-100.00,North,5,0.0,1.0,100,-99.99,,,-99.99,,2013-05-07 07:42:00,
2013-05-07 03:52:00,45.0,45.0,-100.00,North,5,0.0,0.0,100,-99.99,,,-99.99,,2013-05-07 07:52:00,
2013-05-07 04:02:00,45.0,45.0,-100.00,North,5,0.0,0.0,100,-99.99,,,-99.99,,2013-05-07 08:02:00,
2013-05-07 04:11:00,45.0,45.0,-100.00,North,5,0.0,1.0,100,-99.99,,,-99.99,,2013-05-07 08:11:00,
2013-05-07 04:22:00,45.0,45.0,-100.00,North,5,0.0,0.0,100,-99.99,,,-99.99,,2013-05-07 08:22:00,
2013-05-07 04:32:00,45.0,45.0,-100.00,North,5,0.0,0.0,99,-99.99,,,-99.99,,2013-05-07 08:32:00,
2013-05-07 04:42:00,45.0,45.0,-100.00,North,5,0.0,0.0,100,-99.99,,,-99.99,,2013-05-07 08:42:00,
2013-05-07 04:52:00,46.0,46.0,-100.00,North,5,1.0,4.0,100,-99.99,,,-99.99,,2013-05-07 08:52:00,
2013-05-07 05:01:00,46.0,46.0,-100.00,North,5,0.0,2.0,99,-99.99,,,-99.99,,2013-05-07 09:01:00,
2013-05-07 05:11:00,46.0,46.0,-100.00,North,5,0.0,1.0,99,-99.99,,,-99.99,,2013-05-07 09:11:00,
2013-05-07 05:23:00,46.0,46.0,-100.00,North,5,0.0,1.0,100,-99.99,,,-99.99,,2013-05-07 09:23:00,
2013-05-07 05:30:00,46.0,46.0,-100.00,North,5,1.0,4.0,100,-99.99,,,-99.99,,2013-05-07 09:30:00,
2013-05-07 05:33:00,46.0,46.0,-100.00,North,5,0.0,1.0,99,-99.99,,,-99.99,,2013-05-07 09:33:00,
2013-05-07 05:43:00,46.0,46.0,-100.00,North,5,2.0,2.0,100,-99.99,,,-99.99,,2013-05-07 09:43:00,
2013-05-07 05:52:00,46.0,46.0,-100.00,North,5,4.0,5.0,100,-99.99,,,-99.99,,2013-05-07 09:52:00,
2013-05-07 06:03:00,46.0,46.0,-100.00,North,5,1.0,4.0,100,-99.99,,,-99.99,,2013-05-07 10:03:00,
2013-05-07 06:12:00,46.0,46.0,-100.00,North,5,1.0,4.0,100,-99.99,,,-99.99,,2013-05-07 10:12:00,
2013-05-07 06:23:00,46.0,46.0,-100.00,North,5,1.0,4.0,100,-99.99,,,-99.99,,2013-05-07 10:23:00,
2013-05-07 06:42:00,45.0,45.0,-100.00,North,5,0.0,0.0,100,-99.99,,,-99.99,,2013-05-07 10:42:00,
2013-05-07 06:52:00,44.0,44.0,-100.00,North,5,0.0,0.0,100,-99.99,,,-99.99,,2013-05-07 10:52:00,
2013-05-07 07:02:00,45.0,45.0,-100.00,North,5,0.0,1.0,100,-99.99,,,-99.99,,2013-05-07 11:02:00,
2013-05-07 07:12:00,45.0,45.0,-100.00,North,5,0.0,1.0,99,-99.99,,,-99.99,,2013-05-07 11:12:00,
2013-05-07 07:22:00,45.0,45.0,-100.00,North,5,0.0,3.0,100,-99.99,,,-99.99,,2013-05-07 11:22:00,
2013-05-07 07:32:00,46.0,46.0,-100.00,North,5,0.0,2.0,100,-99.99,,,-99.99,,2013-05-07 11:32:00,
2013-05-07 07:42:00,46.0,46.0,-100.00,North,5,0.0,0.0,100,-99.99,,,-99.99,,2013-05-07 11:42:00,
2013-05-07 07:52:00,47.0,47.0,-100.00,North,5,0.0,1.0,100,-99.99,,,-99.99,,2013-05-07 11:52:00,
2013-05-07 08:02:00,48.0,48.0,-100.00,North,5,2.0,4.0,100,-99.99,,,-99.99,,2013-05-07 12:02:00,
2013-05-07 08:12:00,50.0,50.0,-100.00,North,5,0.0,4.0,100,-99.99,,,-99.99,,2013-05-07 12:12:00,
2013-05-07 08:22:00,51.0,51.0,-100.00,North,5,1.0,3.0,99,-99.99,,,-99.99,,2013-05-07 12:22:00,
2013-05-07 08:32:00,53.0,53.0,-100.00,North,5,0.0,1.0,100,-99.99,,,-99.99,,2013-05-07 12:32:00,
2013-05-07 08:42:00,56.0,55.0,-100.00,North,5,0.0,0.0,99,-99.99,,,-99.99,,2013-05-07 12:42:00,
2013-05-07 08:52:00,56.0,56.0,-100.00,North,5,0.0,2.0,100,-99.99,,,-99.99,,2013-05-07 12:52:00,
2013-05-07 09:02:00,56.0,56.0,-100.00,North,5,1.0,4.0,100,-99.99,,,-99.99,,2013-05-07 13:02:00,
2013-05-07 09:11:00,57.0,57.0,-100.00,North,5,1.0,2.0,100,-99.99,,,-99.99,,2013-05-07 13:11:00,
2013-05-07 09:22:00,58.0,58.0,-100.00,North,5,1.0,2.0,99,-99.99,,,-99.99,,2013-05-07 13:22:00,
2013-05-07 09:32:00,58.0,58.0,-100.00,North,5,1.0,2.0,100,-99.99,,,-99.99,,2013-05-07 13:32:00,
2013-05-07 09:42:00,58.0,58.0,-100.00,North,5,1.0,2.0,100,-99.99,,,-99.99,,2013-05-07 13:42:00,
2013-05-07 09:52:00,61.0,61.0,-100.00,North,5,0.0,2.0,99,-99.99,,,-99.99,,2013-05-07 13:52:00,
2013-05-07 10:02:00,62.0,61.0,-100.00,North,5,0.0,2.0,99,-99.99,,,-99.99,,2013-05-07 14:02:00,
2013-05-07 10:11:00,62.0,62.0,-100.00,North,5,2.0,4.0,99,-99.99,,,-99.99,,2013-05-07 14:11:00,
2013-05-07 10:22:00,62.0,62.0,-100.00,North,5,2.0,6.0,99,-99.99,,,-99.99,,2013-05-07 14:22:00,
2013-05-07 10:32:00,62.0,62.0,-100.00,North,5,5.0,6.0,100,-99.99,,,-99.99,,2013-05-07 14:32:00,
2013-05-07 10:42:00,63.0,63.0,-100.00,North,5,4.0,6.0,99,-99.99,,,-99.99,,2013-05-07 14:42:00,
2013-05-07 10:52:00,63.0,63.0,-100.00,North,5,2.0,4.0,99,-99.99,,,-99.99,,2013-05-07 14:52:00,
2013-05-07 11:01:00,63.0,63.0,-100.00,North,5,4.0,6.0,99,-99.99,,,-99.99,,2013-05-07 15:01:00,
2013-05-07 11:10:00,65.0,65.0,-100.00,North,5,2.0,10.0,99,-99.99,,,-99.99,,2013-05-07 15:10:00,
2013-05-07 11:12:00,65.0,65.0,-100.00,North,5,1.0,8.0,99,-99.99,,,-99.99,,2013-05-07 15:12:00,
2013-05-07 11:22:00,66.0,65.0,-100.00,North,5,1.0,5.0,99,-99.99,,,-99.99,,2013-05-07 15:22:00,
2013-05-07 11:33:00,65.0,64.0,-100.00,North,5,5.0,9.0,99,-99.99,,,-99.99,,2013-05-07 15:33:00,
2013-05-07 11:42:00,65.0,65.0,-100.00,North,5,2.0,10.0,99,-99.99,,,-99.99,,2013-05-07 15:42:00,
2013-05-07 11:53:00,65.0,65.0,-100.00,North,5,2.0,10.0,99,-99.99,,,-99.99,,2013-05-07 15:53:00,
2013-05-07 12:03:00,65.0,65.0,-100.00,North,5,2.0,10.0,99,-99.99,,,-99.99,,2013-05-07 16:03:00,
2013-05-07 12:10:00,64.0,64.0,-100.00,North,5,4.0,11.0,99,-99.99,,,-99.99,,2013-05-07 16:10:00,
2013-05-07 12:52:00,64.0,64.0,-100.00,North,5,4.0,11.0,99,-99.99,,,-99.99,,2013-05-07 16:52:00,
2013-05-07 13:01:00,64.0,64.0,-100.00,North,5,4.0,11.0,99,-99.99,,,-99.99,,2013-05-07 17:01:00,
2013-05-07 14:01:00,67.0,67.0,-100.00,North,5,2.0,13.0,99,-99.99,,,-99.99,,2013-05-07 18:01:00,
2013-05-07 14:11:00,67.0,67.0,-100.00,North,5,2.0,13.0,99,-99.99,,,-99.99,,2013-05-07 18:11:00,
2013-05-07 14:21:00,68.0,68.0,-100.00,North,5,6.0,13.0,100,-99.99,,,-99.99,,2013-05-07 18:21:00,
2013-05-07 14:32:00,68.0,68.0,-100.00,North,5,4.0,14.0,99,-99.99,,,-99.99,,2013-05-07 18:32:00,
2013-05-07 14:42:00,68.0,68.0,-100.00,North,5,5.0,11.0,99,-99.99,,,-99.99,,2013-05-07 18:42:00,
2013-05-07 14:52:00,68.0,68.0,-100.00,North,5,7.0,13.0,99,-99.99,,,-99.99,,2013-05-07 18:52:00,
2013-05-07 15:02:00,70.0,69.0,-100.00,North,5,4.0,10.0,99,-99.99,,,-99.99,,2013-05-07 19:02:00,
2013-05-07 15:11:00,69.0,68.0,-100.00,North,5,4.0,10.0,99,-99.99,,,-99.99,,2013-05-07 19:11:00,
2013-05-07 15:21:00,70.0,70.0,-100.00,North,5,5.0,14.0,99,-99.99,,,-99.99,,2013-05-07 19:21:00,
2013-05-07 15:32:00,70.0,70.0,-100.00,North,5,5.0,14.0,99,-99.99,,,-99.99,,2013-05-07 19:32:00,
2013-05-07 15:42:00,71.0,71.0,-100.00,North,5,7.0,11.0,99,-99.99,,,-99.99,,2013-05-07 19:42:00,
2013-05-07 15:52:00,69.0,68.0,-100.00,North,5,6.0,14.0,99,-99.99,,,-99.99,,2013-05-07 19:52:00,
2013-05-07 16:02:00,71.0,71.0,-100.00,North,5,4.0,12.0,99,-99.99,,,-99.99,,2013-05-07 20:02:00,
2013-05-07 16:12:00,69.0,68.0,-100.00,North,5,8.0,13.0,99,-99.99,,,-99.99,,2013-05-07 20:12:00,
2013-05-07 16:22:00,69.0,68.0,-100.00,North,5,8.0,13.0,99,-99.99,,,-99.99,,2013-05-07 20:22:00,
2013-05-07 16:32:00,70.0,70.0,-100.00,North,5,8.0,15.0,99,-99.99,,,-99.99,,2013-05-07 20:32:00,
2013-05-07 16:42:00,69.0,69.0,-100.00,North,5,8.0,11.0,99,-99.99,,,-99.99,,2013-05-07 20:42:00,
2013-05-07 16:51:00,70.0,70.0,-100.00,North,5,9.0,13.0,99,-99.99,,,-99.99,,2013-05-07 20:51:00,
2013-05-07 17:02:00,71.0,71.0,-100.00,North,5,2.0,11.0,99,-99.99,,,-99.99,,2013-05-07 21:02:00,
2013-05-07 17:11:00,71.0,71.0,-100.00,North,5,8.0,11.0,99,-99.99,,,-99.99,,2013-05-07 21:11:00,
2013-05-07 17:22:00,72.0,71.0,-100.00,North,5,6.0,14.0,99,-99.99,,,-99.99,,2013-05-07 21:22:00,
2013-05-07 17:33:00,69.0,69.0,-100.00,North,5,6.0,17.0,99,-99.99,,,-99.99,,2013-05-07 21:33:00,
2013-05-07 17:42:00,69.0,69.0,-100.00,North,5,4.0,11.0,100,-99.99,,,-99.99,,2013-05-07 21:42:00,
2013-05-07 17:53:00,68.0,68.0,-100.00,North,5,5.0,11.0,99,-99.99,,,-99.99,,2013-05-07 21:53:00,
2013-05-07 18:02:00,68.0,68.0,-100.00,North,5,4.0,11.0,99,-99.99,,,-99.99,,2013-05-07 22:02:00,
2013-05-07 18:13:00,69.0,69.0,-100.00,North,5,8.0,13.0,100,-99.99,,,-99.99,,2013-05-07 22:13:00,
2013-05-07 18:22:00,67.0,67.0,-100.00,North,5,5.0,16.0,99,-99.99,,,-99.99,,2013-05-07 22:22:00,
2013-05-07 18:33:00,66.0,66.0,-100.00,North,5,5.0,13.0,100,-99.99,,,-99.99,,2013-05-07 22:33:00,
2013-05-07 18:42:00,64.0,64.0,-100.00,North,5,4.0,9.0,99,-99.99,,,-99.99,,2013-05-07 22:42:00,
2013-05-07 18:52:00,64.0,64.0,-100.00,North,5,4.0,9.0,99,-99.99,,,-99.99,,2013-05-07 22:52:00,
2013-05-07 19:02:00,66.0,65.0,-100.00,North,5,2.0,4.0,99,-99.99,,,-99.99,,2013-05-07 23:02:00,
2013-05-07 19:12:00,65.0,64.0,-100.00,North,5,4.0,5.0,99,-99.99,,,-99.99,,2013-05-07 23:12:00,
2013-05-07 19:22:00,64.0,64.0,-100.00,North,5,3.0,6.0,100,-99.99,,,-99.99,,2013-05-07 23:22:00,
2013-05-07 19:32:00,63.0,63.0,-100.00,North,5,4.0,8.0,99,-99.99,,,-99.99,,2013-05-07 23:32:00,
2013-05-07 19:42:00,63.0,62.0,-100.00,North,5,3.0,11.0,99,-99.99,,,-99.99,,2013-05-07 23:42:00,
2013-05-07 19:52:00,63.0,63.0,-100.00,North,5,4.0,9.0,99,-99.99,,,-99.99,,2013-05-07 23:52:00,
2013-05-07 20:02:00,62.0,62.0,-100.00,North,5,2.0,9.0,99,-99.99,,,-99.99,,2013-05-08 00:02:00,
2013-05-07 20:12:00,62.0,62.0,-100.00,North,5,2.0,10.0,99,-99.99,,,-99.99,,2013-05-08 00:12:00,
2013-05-07 20:22:00,61.0,61.0,-100.00,North,5,1.0,7.0,99,-99.99,,,-99.99,,2013-05-08 00:22:00,
2013-05-07 20:32:00,62.0,62.0,-100.00,North,5,1.0,2.0,100,-99.99,,,-99.99,,2013-05-08 00:32:00,
2013-05-07 20:42:00,61.0,61.0,-100.00,North,5,0.0,1.0,99,-99.99,,,-99.99,,2013-05-08 00:42:00,
2013-05-07 20:51:00,61.0,61.0,-100.00,North,5,0.0,1.0,100,-99.99,,,-99.99,,2013-05-08 00:51:00,
2013-05-07 21:02:00,60.0,59.0,-100.00,North,5,1.0,2.0,99,-99.99,,,-99.99,,2013-05-08 01:02:00,
2013-05-07 21:11:00,59.0,59.0,-100.00,North,5,1.0,2.0,100,-99.99,,,-99.99,,2013-05-08 01:11:00,
2013-05-07 21:22:00,59.0,58.0,-100.00,North,5,1.0,1.0,99,-99.99,,,-99.99,,2013-05-08 01:22:00,
2013-05-07 21:32:00,58.0,58.0,-100.00,North,5,1.0,1.0,100,-99.99,,,-99.99,,2013-05-08 01:32:00,
2013-05-07 21:42:00,58.0,58.0,-100.00,North,5,0.0,2.0,100,-99.99,,,-99.99,,2013-05-08 01:42:00,
2013-05-07 21:52:00,58.0,58.0,-100.00,North,5,0.0,1.0,100,-99.99,,,-99.99,,2013-05-08 01:52:00,
2013-05-07 22:02:00,58.0,58.0,-100.00,North,5,1.0,1.0,99,-99.99,,,-99.99,,2013-05-08 02:02:00,
2013-05-07 22:12:00,58.0,58.0,-100.00,North,5,0.0,1.0,100,-99.99,,,-99.99,,2013-05-08 02:12:00,
2013-05-07 22:22:00,58.0,58.0,-100.00,North,5,1.0,3.0,100,-99.99,,,-99.99,,2013-05-08 02:22:00,
2013-05-07 22:32:00,58.0,58.0,-100.00,North,5,1.0,2.0,99,-99.99,,,-99.99,,2013-05-08 02:32:00,
2013-05-07 22:42:00,58.0,58.0,-100.00,North,5,2.0,4.0,99,-99.99,,,-99.99,,2013-05-08 02:42:00,
2013-05-07 22:52:00,58.0,58.0,-100.00,North,5,0.0,4.0,100,-99.99,,,-99.99,,2013-05-08 02:52:00,
2013-05-07 23:02:00,58.0,57.0,-100.00,North,5,4.0,4.0,99,-99.99,,,-99.99,,2013-05-08 03:02:00,
2013-05-07 23:11:00,58.0,58.0,-100.00,North,5,1.0,5.0,100,-99.99,,,-99.99,,2013-05-08 03:11:00,
2013-05-07 23:22:00,58.0,57.0,-100.00,North,5,1.0,4.0,99,-99.99,,,-99.99,,2013-05-08 03:22:00,
2013-05-07 23:33:00,57.0,57.0,-100.00,North,5,0.0,3.0,99,-99.99,,,-99.99,,2013-05-08 03:33:00,
2013-05-07 23:43:00,57.0,57.0,-100.00,North,5,0.0,1.0,99,-99.99,,,-99.99,,2013-05-08 03:43:00,
2013-05-07 23:52:00,57.0,57.0,-100.00,North,5,2.0,4.0,99,-99.99,,,-99.99,,2013-05-08 03:52:00,